Time;durP1;ratioP1;P1;durP2;ratioP2;P2;SDS_P1;SDS_P2;PMS_P1;PMS_P2;Temp;Humidity;BMP_temperature;BMP_pressure;BME280_temperature;BME280_humidity;BME280_pressure;Samples;Min_cycle;Max_cycle;Signal;HPM_P1;HPM_P2
2021/11/17 02:27:05;;;;;;;13.65;3.85;;;;;;;;;;4967804;28;20112;-84
2021/11/17 02:29:38;;;;;;;18.70;4.00;;;;;;;;;;4953957;28;20417;-82
2021/11/17 02:32:23;;;;;;;19.67;4.90;;;;;;;;;;4947295;28;20112;-82
2021/11/17 02:35:10;;;;;;;18.48;3.83;;;;;;;;;;4962397;28;20145;-81
2021/11/17 02:37:40;;;;;;;18.98;3.92;;;;;;;;;;4936978;28;20030;-82
2021/11/17 02:40:15;;;;;;;19.92;4.18;;;;;;;;;;4940707;28;20040;-82
2021/11/17 02:42:56;;;;;;;21.95;4.18;;;;;;;;;;4952342;28;20077;-82
2021/11/17 02:45:29;;;;;;;16.98;3.67;;;;;;;;;;4962891;28;20836;-82
2021/11/17 02:48:05;;;;;;;22.70;5.43;;;;;;;;;;4965587;28;20045;-82
2021/11/17 02:50:34;;;;;;;19.97;4.40;;;;;;;;;;4953404;28;20598;-81
2021/11/17 02:53:09;;;;;;;23.73;4.35;;;;;;;;;;4950428;28;20070;-82
2021/11/17 02:55:41;;;;;;;21.42;4.40;;;;;;;;;;4949278;28;20466;-82
2021/11/17 02:58:16;;;;;;;17.73;4.28;;;;;;;;;;4942782;28;20035;-81
2021/11/17 03:00:43;;;;;;;23.27;4.30;;;;;;;;;;4977172;28;20054;-82
2021/11/17 03:03:28;;;;;;;22.77;5.13;;;;;;;;;;4945430;28;20048;-82
2021/11/17 03:05:54;;;;;;;17.52;4.63;;;;;;;;;;4958868;28;20428;-82
2021/11/17 03:08:32;;;;;;;19.67;5.05;;;;;;;;;;4947016;28;20034;-82
2021/11/17 03:11:05;;;;;;;22.88;4.38;;;;;;;;;;4967537;28;20195;-82
2021/11/17 03:13:38;;;;;;;21.50;4.57;;;;;;;;;;4967023;28;20061;-81
2021/11/17 03:16:04;;;;;;;15.88;4.18;;;;;;;;;;4945640;28;20038;-80
2021/11/17 03:18:45;;;;;;;25.10;4.50;;;;;;;;;;4947471;28;20149;-81
2021/11/17 03:21:12;;;;;;;23.48;5.00;;;;;;;;;;4962729;28;20085;-81
2021/11/17 03:23:53;;;;;;;19.95;4.55;;;;;;;;;;4964157;28;20062;-80
2021/11/17 03:26:26;;;;;;;17.75;3.83;;;;;;;;;;4936841;28;20053;-81
2021/11/17 03:29:07;;;;;;;23.30;4.38;;;;;;;;;;4966319;28;20185;-81
2021/11/17 03:31:52;;;;;;;19.73;4.13;;;;;;;;;;4962351;28;20058;-81
2021/11/17 03:34:30;;;;;;;22.67;4.93;;;;;;;;;;4946528;28;20030;-82
2021/11/17 03:37:15;;;;;;;24.85;4.63;;;;;;;;;;4984139;28;20648;-80
2021/11/17 03:40:02;;;;;;;18.63;4.30;;;;;;;;;;4947995;28;20039;-81
2021/11/17 03:42:37;;;;;;;19.15;4.28;;;;;;;;;;4957398;28;20125;-81
2021/11/17 03:45:19;;;;;;;22.08;4.22;;;;;;;;;;4942023;28;20053;-81
2021/11/17 03:48:12;;;;;;;22.92;4.55;;;;;;;;;;4946775;28;20035;-80
2021/11/17 03:50:45;;;;;;;19.17;4.47;;;;;;;;;;4954020;28;20058;-81
2021/11/17 03:53:37;;;;;;;20.25;4.78;;;;;;;;;;4974506;28;20034;-80
2021/11/17 03:56:12;;;;;;;21.85;4.18;;;;;;;;;;4952500;28;20039;-81
2021/11/17 03:58:39;;;;;;;25.98;4.80;;;;;;;;;;4950794;28;20042;-81
2021/11/17 04:01:26;;;;;;;23.65;4.28;;;;;;;;;;4937791;28;20093;-81
2021/11/17 04:03:58;;;;;;;16.60;3.90;;;;;;;;;;4937890;28;20077;-81
2021/11/17 04:06:28;;;;;;;14.00;3.60;;;;;;;;;;4945194;28;20975;-81
2021/11/17 04:09:25;;;;;;;17.08;3.78;;;;;;;;;;4979095;28;20034;-81
2021/11/17 04:11:57;;;;;;;17.47;3.77;;;;;;;;;;4947876;28;20046;-81
2021/11/17 04:14:33;;;;;;;18.95;4.60;;;;;;;;;;4913723;28;20120;-81
2021/11/17 04:17:08;;;;;;;19.52;3.95;;;;;;;;;;4946934;28;20042;-81
2021/11/17 04:19:46;;;;;;;18.42;3.90;;;;;;;;;;4939195;28;20042;-81
2021/11/17 04:22:30;;;;;;;19.77;4.20;;;;;;;;;;4955083;28;20066;-82
2021/11/17 04:24:57;;;;;;;18.77;4.03;;;;;;;;;;4967374;28;20026;-81
2021/11/17 04:27:23;;;;;;;20.25;3.80;;;;;;;;;;4952431;28;20168;-81
2021/11/17 04:30:00;;;;;;;20.65;4.25;;;;;;;;;;4941741;28;20173;-82
2021/11/17 04:32:32;;;;;;;17.23;4.07;;;;;;;;;;4935971;28;20526;-81
2021/11/17 04:35:15;;;;;;;16.08;3.83;;;;;;;;;;4928481;28;20118;-81
2021/11/17 04:37:41;;;;;;;19.70;3.88;;;;;;;;;;4923973;28;20081;-81
2021/11/17 04:40:19;;;;;;;22.20;3.97;;;;;;;;;;4955393;28;20029;-81
2021/11/17 04:42:58;;;;;;;15.75;3.72;;;;;;;;;;4949072;28;20030;-81
2021/11/17 04:45:33;;;;;;;17.90;3.50;;;;;;;;;;4927020;28;20066;-80
2021/11/17 04:48:05;;;;;;;17.00;3.92;;;;;;;;;;4919415;28;20553;-80
2021/11/17 04:50:33;;;;;;;16.40;3.83;;;;;;;;;;4972090;28;20104;-81
2021/11/17 04:53:07;;;;;;;21.15;4.20;;;;;;;;;;4952360;28;20084;-81
2021/11/17 04:55:36;;;;;;;22.73;4.80;;;;;;;;;;4951109;28;20046;-82
2021/11/17 04:58:21;;;;;;;20.63;4.13;;;;;;;;;;4954410;28;20037;-81
2021/11/17 05:00:54;;;;;;;20.05;3.83;;;;;;;;;;4963581;28;21262;-80
2021/11/17 05:03:20;;;;;;;17.85;3.70;;;;;;;;;;4981984;28;20495;-81
2021/11/17 05:05:53;;;;;;;18.20;3.47;;;;;;;;;;4948235;28;20140;-81
2021/11/17 05:08:37;;;;;;;16.23;3.78;;;;;;;;;;4983452;28;20052;-81
2021/11/17 05:11:10;;;;;;;18.67;3.55;;;;;;;;;;4968918;28;20041;-81
2021/11/17 05:13:47;;;;;;;15.70;3.45;;;;;;;;;;4944658;28;20041;-81
2021/11/17 05:16:28;;;;;;;19.08;3.40;;;;;;;;;;4985849;28;20025;-82
2021/11/17 05:19:14;;;;;;;21.60;4.03;;;;;;;;;;4950851;28;20083;-82
2021/11/17 05:21:43;;;;;;;17.92;3.78;;;;;;;;;;4984678;28;20045;-82
2021/11/17 05:24:21;;;;;;;19.75;3.70;;;;;;;;;;4984634;28;20458;-82
2021/11/17 05:26:53;;;;;;;17.40;3.65;;;;;;;;;;4987026;28;20700;-82
2021/11/17 05:29:20;;;;;;;18.65;3.80;;;;;;;;;;5002619;28;20030;-82
2021/11/17 05:31:55;;;;;;;20.08;4.13;;;;;;;;;;5007112;28;20096;-82
2021/11/17 05:34:47;;;;;;;19.73;4.03;;;;;;;;;;4982479;28;21150;-82
2021/11/17 05:37:33;;;;;;;16.08;3.35;;;;;;;;;;4997003;28;20029;-80
2021/11/17 05:40:15;;;;;;;19.83;3.90;;;;;;;;;;5009829;28;20114;-80
2021/11/17 05:42:41;;;;;;;14.75;3.40;;;;;;;;;;4996210;28;20040;-81
2021/11/17 05:45:26;;;;;;;13.68;3.35;;;;;;;;;;4986734;28;20087;-81
2021/11/17 05:47:52;;;;;;;19.85;3.88;;;;;;;;;;5007103;28;20209;-81
2021/11/17 05:50:31;;;;;;;18.23;3.88;;;;;;;;;;5001416;28;20079;-80
2021/11/17 05:53:10;;;;;;;20.27;3.97;;;;;;;;;;4963392;28;20030;-81
2021/11/17 05:55:44;;;;;;;15.15;3.75;;;;;;;;;;4980786;28;20121;-82
2021/11/17 05:58:26;;;;;;;18.58;3.53;;;;;;;;;;4946116;28;20023;-82
2021/11/17 06:00:52;;;;;;;20.48;4.25;;;;;;;;;;4951384;28;20084;-82
2021/11/17 06:03:37;;;;;;;17.88;5.18;;;;;;;;;;4966614;28;20035;-82
2021/11/17 06:06:03;;;;;;;19.17;3.95;;;;;;;;;;4945324;28;20065;-82
2021/11/17 06:08:29;;;;;;;14.68;3.42;;;;;;;;;;4948582;28;20109;-82
2021/11/17 06:10:57;;;;;;;15.20;3.17;;;;;;;;;;4955114;28;20040;-82
2021/11/17 06:13:23;;;;;;;17.30;3.60;;;;;;;;;;4941869;28;21187;-82
2021/11/17 06:15:50;;;;;;;19.13;3.80;;;;;;;;;;4948940;28;20077;-82
2021/11/17 06:18:19;;;;;;;21.58;3.78;;;;;;;;;;4942156;28;20046;-82
2021/11/17 06:20:46;;;;;;;18.02;3.97;;;;;;;;;;4953427;28;20022;-82
2021/11/17 06:23:14;;;;;;;20.23;3.65;;;;;;;;;;4972275;28;20038;-82
2021/11/17 06:25:43;;;;;;;16.95;3.83;;;;;;;;;;4956561;28;20330;-82
2021/11/17 06:28:10;;;;;;;16.95;3.88;;;;;;;;;;4944024;28;20073;-82
2021/11/17 06:30:38;;;;;;;18.15;4.00;;;;;;;;;;4952199;28;20037;-81
2021/11/17 06:33:08;;;;;;;16.67;3.80;;;;;;;;;;4947668;28;20038;-81
2021/11/17 06:35:36;;;;;;;18.30;3.55;;;;;;;;;;4976198;28;20035;-80
2021/11/17 06:38:03;;;;;;;16.00;3.53;;;;;;;;;;4952794;28;20037;-80
2021/11/17 06:40:29;;;;;;;13.30;3.83;;;;;;;;;;4943987;28;20054;-81
2021/11/17 06:42:55;;;;;;;;;;;;;;;;;;4950344;28;20371;-81
2021/11/17 06:45:35;;;;;;;18.15;4.38;;;;;;;;;;4971993;28;20681;-81
2021/11/17 06:48:03;;;;;;;19.92;4.32;;;;;;;;;;4964616;28;20046;-81
2021/11/17 06:50:29;;;;;;;17.45;4.45;;;;;;;;;;4956416;28;20069;-81
2021/11/17 06:52:56;;;;;;;17.17;3.90;;;;;;;;;;4948145;28;20034;-80
2021/11/17 06:55:22;;;;;;;23.65;4.70;;;;;;;;;;4949244;28;21245;-81
2021/11/17 06:57:48;;;;;;;15.77;3.90;;;;;;;;;;4948851;28;20100;-81
2021/11/17 07:00:16;;;;;;;16.52;3.83;;;;;;;;;;4943928;28;20046;-80
2021/11/17 07:02:42;;;;;;;15.10;4.55;;;;;;;;;;4954809;28;20168;-81
2021/11/17 07:05:09;;;;;;;18.10;3.75;;;;;;;;;;4943273;28;20038;-80
2021/11/17 07:07:36;;;;;;;15.40;3.55;;;;;;;;;;4965455;28;20042;-80
2021/11/17 07:10:02;;;;;;;18.35;3.55;;;;;;;;;;4962810;28;20027;-82
2021/11/17 07:12:28;;;;;;;;;;;;;;;;;;4953637;28;21099;-80
2021/11/17 07:14:54;;;;;;;22.48;3.95;;;;;;;;;;4964346;28;19921;-81
2021/11/17 07:17:20;;;;;;;25.60;4.57;;;;;;;;;;4959490;28;20058;-80
2021/11/17 07:19:46;;;;;;;17.40;4.22;;;;;;;;;;4954301;28;20611;-81
2021/11/17 07:22:13;;;;;;;19.27;4.35;;;;;;;;;;4944243;28;20038;-81
2021/11/17 07:24:40;;;;;;;20.25;4.00;;;;;;;;;;4957384;28;20029;-81
2021/11/17 07:27:07;;;;;;;16.98;3.85;;;;;;;;;;4944017;28;20035;-81
2021/11/17 07:29:33;;;;;;;18.45;4.20;;;;;;;;;;4983893;28;20053;-80
2021/11/17 07:32:00;;;;;;;17.10;4.00;;;;;;;;;;4954863;28;20038;-80
2021/11/17 07:34:27;;;;;;;20.25;4.15;;;;;;;;;;4947913;28;20041;-81
2021/11/17 07:36:53;;;;;;;22.33;4.93;;;;;;;;;;4968236;28;20038;-81
2021/11/17 07:39:19;;;;;;;19.33;4.40;;;;;;;;;;4944020;28;20387;-82
2021/11/17 07:41:50;;;;;;;15.82;4.70;;;;;;;;;;4951781;28;20035;-80
2021/11/17 07:44:17;;;;;;;20.48;4.53;;;;;;;;;;4945579;28;20031;-80
2021/11/17 07:46:47;;;;;;;21.70;4.30;;;;;;;;;;4952441;28;20078;-80
2021/11/17 07:49:15;;;;;;;15.93;4.47;;;;;;;;;;4952162;28;20050;-79
2021/11/17 07:51:41;;;;;;;20.02;4.30;;;;;;;;;;4955511;28;20026;-79
2021/11/17 07:54:07;;;;;;;22.00;4.47;;;;;;;;;;4953451;28;20116;-80
2021/11/17 07:56:35;;;;;;;17.60;3.95;;;;;;;;;;4944893;28;20038;-81
2021/11/17 07:59:01;;;;;;;19.80;4.22;;;;;;;;;;4957081;28;20045;-81
2021/11/17 08:01:28;;;;;;;23.08;5.57;;;;;;;;;;4951935;28;20084;-79
2021/11/17 08:03:55;;;;;;;20.50;4.55;;;;;;;;;;4962529;28;20034;-80
2021/11/17 08:06:25;;;;;;;17.48;4.13;;;;;;;;;;4959154;28;20034;-80
2021/11/17 08:08:52;;;;;;;17.90;4.45;;;;;;;;;;4984878;28;20065;-82
2021/11/17 08:11:18;;;;;;;22.13;4.75;;;;;;;;;;4958690;28;20461;-78
2021/11/17 08:13:45;;;;;;;18.67;4.28;;;;;;;;;;4957256;28;20035;-79
2021/11/17 08:16:12;;;;;;;20.45;3.97;;;;;;;;;;4953153;28;20026;-80
2021/11/17 08:18:39;;;;;;;21.00;4.95;;;;;;;;;;4968401;28;20549;-80
2021/11/17 08:21:05;;;;;;;15.65;4.22;;;;;;;;;;4954961;28;20039;-79
2021/11/17 08:23:31;;;;;;;;;;;;;;;;;;4953068;28;20552;-80
2021/11/17 08:25:57;;;;;;;17.25;4.45;;;;;;;;;;4956502;28;19922;-80
2021/11/17 08:28:23;;;;;;;20.10;4.05;;;;;;;;;;4979205;28;21264;-81
2021/11/17 08:30:50;;;;;;;16.85;3.80;;;;;;;;;;4956803;28;20030;-81
2021/11/17 09:01:28;;;;;;;24.90;5.13;;;;;;;;;;4343024;23;20060;-79
2021/11/17 09:06:45;;;;;;;19.50;5.47;;;;;;;;;;5617133;23;20054;-92
2021/11/17 09:09:12;;;;;;;20.40;4.95;;;;;;;;;;4925312;29;20047;-92
2021/11/17 09:11:41;;;;;;;21.35;6.00;;;;;;;;;;4919624;29;20059;-91
2021/11/17 09:14:08;;;;;;;19.58;5.72;;;;;;;;;;4905737;29;20303;-92
2021/11/17 09:16:39;;;;;;;21.45;5.15;;;;;;;;;;4927060;29;20047;-94
2021/11/17 09:19:09;;;;;;;18.73;5.03;;;;;;;;;;4944147;29;20072;-93
2021/11/17 09:21:42;;;;;;;24.17;5.43;;;;;;;;;;4928252;29;20024;-93
2021/11/17 09:24:13;;;;;;;21.30;5.20;;;;;;;;;;4912199;29;20044;-92
2021/11/17 09:26:42;;;;;;;20.63;4.68;;;;;;;;;;4923767;29;20039;-91
2021/11/17 09:29:09;;;;;;;22.42;4.55;;;;;;;;;;4942043;29;20038;-92
2021/11/17 09:31:40;;;;;;;20.15;4.55;;;;;;;;;;4918106;29;20130;-89
2021/11/17 09:34:06;;;;;;;21.60;4.50;;;;;;;;;;4917246;29;20036;-92
2021/11/17 09:36:36;;;;;;;17.40;4.22;;;;;;;;;;4885096;29;20048;-93
2021/11/17 09:39:04;;;;;;;19.77;4.47;;;;;;;;;;4904226;29;20029;-91
2021/11/17 09:41:34;;;;;;;17.20;4.60;;;;;;;;;;4896315;29;20036;-93
2021/11/17 09:44:03;;;;;;;18.75;4.07;;;;;;;;;;4901307;29;20059;-91
2021/11/17 09:46:32;;;;;;;20.15;4.30;;;;;;;;;;4898633;29;20028;-94
2021/11/17 09:49:09;;;;;;;21.77;4.65;;;;;;;;;;4900371;29;20128;-91
2021/11/17 09:51:39;;;;;;;15.43;3.70;;;;;;;;;;4915750;29;20042;-91
2021/11/17 09:54:22;;;;;;;18.60;3.38;;;;;;;;;;4908001;29;20046;-91
2021/11/17 09:57:01;;;;;;;14.93;4.13;;;;;;;;;;4915250;29;20043;-93
2021/11/17 09:59:51;;;;;;;16.67;4.00;;;;;;;;;;4911119;29;20036;-93
2021/11/17 10:02:26;;;;;;;18.70;3.72;;;;;;;;;;4916076;29;20083;-92
2021/11/17 10:05:00;;;;;;;20.67;4.70;;;;;;;;;;4902669;29;20036;-92
2021/11/17 10:13:23;;;;;;;15.35;3.65;;;;;;;;;;4907892;29;20032;-94
2021/11/17 10:15:56;;;;;;;16.15;4.72;;;;;;;;;;4910739;29;20044;-92
2021/11/17 10:18:40;;;;;;;14.88;3.65;;;;;;;;;;4906651;29;20076;-93
2021/11/17 10:21:25;;;;;;;19.17;4.05;;;;;;;;;;4906075;29;20024;-93
2021/11/17 10:24:12;;;;;;;17.35;3.78;;;;;;;;;;4924799;29;20148;-92
2021/11/17 10:26:47;;;;;;;22.80;5.57;;;;;;;;;;4909525;29;20020;-93
2021/11/17 10:29:26;;;;;;;17.87;4.60;;;;;;;;;;4929757;28;20040;-92
2021/11/17 10:31:55;;;;;;;22.30;4.53;;;;;;;;;;4920879;29;20020;-93
2021/11/17 10:34:31;;;;;;;20.55;4.90;;;;;;;;;;4885350;29;20025;-91
2021/11/17 10:37:08;;;;;;;23.08;4.57;;;;;;;;;;4900348;29;20039;-91
2021/11/17 10:39:42;;;;;;;19.20;4.55;;;;;;;;;;4916318;29;20031;-92
2021/11/17 10:42:09;;;;;;;19.38;4.95;;;;;;;;;;4917730;29;20161;-93
2021/11/17 10:44:50;;;;;;;18.95;3.88;;;;;;;;;;4900218;29;20032;-93
2021/11/17 10:47:25;;;;;;;20.05;4.97;;;;;;;;;;4904454;29;20052;-93
2021/11/17 10:49:59;;;;;;;17.50;4.18;;;;;;;;;;4915430;29;20036;-93
2021/11/17 10:52:54;;;;;;;19.60;5.25;;;;;;;;;;4912875;29;20079;-93
2021/11/17 10:55:39;;;;;;;16.13;3.70;;;;;;;;;;4928665;29;20044;-93
2021/11/17 10:58:11;;;;;;;19.15;4.00;;;;;;;;;;4926685;29;20039;-92
2021/11/17 11:00:50;;;;;;;16.33;4.10;;;;;;;;;;4908751;29;20071;-92
2021/11/17 11:03:16;;;;;;;;;;;;;;;;;;4910262;29;20020;-92
2021/11/17 11:05:51;;;;;;;16.00;3.45;;;;;;;;;;4912544;29;19914;-93
2021/11/17 11:08:44;;;;;;;13.73;4.13;;;;;;;;;;4908005;29;20049;-93
2021/11/17 11:11:14;;;;;;;13.98;3.42;;;;;;;;;;4914226;29;20029;-93
2021/11/17 11:13:52;;;;;;;21.30;3.78;;;;;;;;;;4913421;29;20017;-92
2021/11/17 11:16:30;;;;;;;16.25;3.50;;;;;;;;;;4933162;28;20104;-92
2021/11/17 11:19:10;;;;;;;22.73;4.28;;;;;;;;;;4910013;29;20108;-93
2021/11/17 11:21:49;;;;;;;18.05;3.63;;;;;;;;;;4902599;29;20045;-93
2021/11/17 11:24:28;;;;;;;19.13;4.05;;;;;;;;;;4909963;29;20051;-92
2021/11/17 11:27:05;;;;;;;25.17;4.30;;;;;;;;;;4909292;29;20100;-93
2021/11/17 11:29:53;;;;;;;19.23;3.80;;;;;;;;;;4907703;29;20067;-92
2021/11/17 11:32:22;;;;;;;19.48;4.30;;;;;;;;;;4904454;29;20068;-93
2021/11/17 11:35:03;;;;;;;18.83;4.45;;;;;;;;;;4900410;29;21546;-93
2021/11/17 11:37:38;;;;;;;18.52;3.97;;;;;;;;;;4919882;29;20033;-94
2021/11/17 11:40:05;;;;;;;15.35;3.40;;;;;;;;;;4913390;29;20048;-93
2021/11/17 11:42:50;;;;;;;15.98;3.22;;;;;;;;;;4894592;29;20033;-94
2021/11/17 11:45:30;;;;;;;17.70;3.58;;;;;;;;;;4915643;29;20044;-93
2021/11/17 11:48:02;;;;;;;15.60;3.00;;;;;;;;;;4890854;29;20024;-93
2021/11/17 11:50:46;;;;;;;16.88;4.45;;;;;;;;;;4891944;29;20384;-93
2021/11/17 11:53:19;;;;;;;15.55;3.70;;;;;;;;;;4897969;29;20064;-93
2021/11/17 11:55:57;;;;;;;16.45;3.83;;;;;;;;;;4898703;29;20132;-93
2021/11/17 11:58:26;;;;;;;21.92;3.83;;;;;;;;;;4918336;29;20115;-93
2021/11/17 12:01:07;;;;;;;16.05;3.03;;;;;;;;;;4900708;29;20017;-93
2021/11/17 12:03:36;;;;;;;17.88;3.40;;;;;;;;;;4896241;29;20076;-94
2021/11/17 12:06:31;;;;;;;18.83;3.25;;;;;;;;;;4894120;29;20025;-93
2021/11/17 12:09:17;;;;;;;16.83;3.50;;;;;;;;;;4869070;29;20049;-93
2021/11/17 12:11:46;;;;;;;16.13;3.25;;;;;;;;;;4887193;29;20052;-93
2021/11/17 12:14:24;;;;;;;16.48;3.72;;;;;;;;;;4885394;29;20044;-92
2021/11/17 12:16:53;;;;;;;19.55;3.65;;;;;;;;;;4884797;29;20045;-93
2021/11/17 12:19:35;;;;;;;18.10;3.70;;;;;;;;;;4867872;29;20028;-90
2021/11/17 12:22:16;;;;;;;17.67;3.45;;;;;;;;;;4867213;29;20041;-91
2021/11/17 12:24:46;;;;;;;16.77;3.45;;;;;;;;;;4864896;29;20104;-91
2021/11/17 12:27:32;;;;;;;17.55;3.53;;;;;;;;;;4853903;29;20041;-92
2021/11/17 12:30:15;;;;;;;20.35;4.65;;;;;;;;;;4873252;29;20017;-92
2021/11/17 12:33:02;;;;;;;20.17;3.90;;;;;;;;;;4875901;29;20048;-93
2021/11/17 12:35:40;;;;;;;16.30;4.18;;;;;;;;;;4878307;29;20040;-95
2021/11/17 12:38:25;;;;;;;19.50;3.42;;;;;;;;;;4886304;29;20029;-94
2021/11/17 12:40:57;;;;;;;17.02;3.65;;;;;;;;;;4899516;29;20053;-94
2021/11/17 12:43:50;;;;;;;17.05;3.42;;;;;;;;;;4881695;29;20121;-93
2021/11/17 12:46:36;;;;;;;16.52;4.05;;;;;;;;;;4893127;29;20060;-92
2021/11/17 12:49:14;;;;;;;17.88;4.00;;;;;;;;;;4869744;29;20060;-80
2021/11/17 12:51:48;;;;;;;19.60;4.18;;;;;;;;;;4866512;29;20028;-80
2021/11/17 12:54:17;;;;;;;17.52;4.15;;;;;;;;;;4871272;29;20047;-80
2021/11/17 12:56:44;;;;;;;18.23;3.92;;;;;;;;;;4865685;29;20037;-80
2021/11/17 13:02:26;;;;;;;15.07;3.80;;;;;;;;;;4867225;29;20622;-80
2021/11/17 13:04:54;;;;;;;;;;;;;;;;;;5425266;23;20062;-83
2021/11/17 13:07:33;;;;;;;17.10;5.05;;;;;;;;;;4875420;29;19962;-83
2021/11/17 13:10:01;;;;;;;18.63;5.03;;;;;;;;;;4889300;29;20043;-83
2021/11/17 13:12:32;;;;;;;20.60;6.00;;;;;;;;;;4882516;29;21376;-84
2021/11/17 13:15:10;;;;;;;17.90;4.80;;;;;;;;;;4888574;29;20039;-83
2021/11/17 13:17:48;;;;;;;21.77;7.30;;;;;;;;;;4888089;29;20046;-84
2021/11/17 13:20:20;;;;;;;16.58;4.50;;;;;;;;;;4880217;29;20044;-83
2021/11/17 13:22:52;;;;;;;14.18;4.28;;;;;;;;;;4874632;29;20075;-84
2021/11/17 13:25:26;;;;;;;13.40;3.70;;;;;;;;;;4881843;29;20040;-83
2021/11/17 13:28:07;;;;;;;16.83;3.88;;;;;;;;;;4882300;29;20048;-84
2021/11/17 13:30:38;;;;;;;15.15;3.72;;;;;;;;;;4869470;29;20913;-85
2021/11/17 13:33:27;;;;;;;19.85;4.25;;;;;;;;;;4886345;29;20044;-84
2021/11/17 13:36:14;;;;;;;11.48;3.72;;;;;;;;;;4884333;29;20060;-85
2021/11/17 13:38:41;;;;;;;;;;;;;;;;;;4881525;29;20063;-84
2021/11/17 13:41:09;;;;;;;14.10;3.65;;;;;;;;;;4881606;29;19923;-83
2021/11/17 13:43:37;;;;;;;15.65;4.88;;;;;;;;;;4883010;29;20104;-85
2021/11/17 13:46:10;;;;;;;16.05;3.83;;;;;;;;;;4885343;29;20056;-84
2021/11/17 13:48:44;;;;;;;16.13;4.32;;;;;;;;;;4884683;29;20247;-85
2021/11/17 13:51:13;;;;;;;16.05;4.30;;;;;;;;;;4863806;29;20167;-85
2021/11/17 13:53:45;;;;;;;16.40;4.70;;;;;;;;;;4883827;29;20119;-86
2021/11/17 13:56:16;;;;;;;18.25;4.90;;;;;;;;;;4880848;29;20044;-87
2021/11/17 13:58:44;;;;;;;17.25;5.20;;;;;;;;;;4885947;29;20052;-86
2021/11/17 14:01:14;;;;;;;17.27;5.00;;;;;;;;;;4883777;29;20036;-85
2021/11/17 14:03:42;;;;;;;15.90;4.88;;;;;;;;;;4887175;29;20036;-85
2021/11/17 14:06:12;;;;;;;16.40;5.00;;;;;;;;;;4884620;28;20048;-86
2021/11/17 14:08:42;;;;;;;17.50;4.55;;;;;;;;;;4886530;29;20036;-85
2021/11/17 14:11:11;;;;;;;18.92;6.20;;;;;;;;;;4884712;29;20040;-84
2021/11/17 14:13:43;;;;;;;18.52;5.13;;;;;;;;;;4903326;29;20040;-86
2021/11/17 14:16:10;;;;;;;21.33;6.18;;;;;;;;;;4882899;29;20043;-84
2021/11/17 14:18:39;;;;;;;17.27;5.03;;;;;;;;;;4890390;29;20032;-86
2021/11/17 14:21:09;;;;;;;17.58;5.07;;;;;;;;;;4901296;29;20043;-84
2021/11/17 14:23:35;;;;;;;18.48;5.47;;;;;;;;;;4909349;29;20040;-84
2021/11/17 14:26:06;;;;;;;16.20;4.40;;;;;;;;;;4909934;29;20043;-83
2021/11/17 14:28:36;;;;;;;21.75;6.07;;;;;;;;;;4906664;29;20036;-84
2021/11/17 14:31:19;;;;;;;18.85;7.25;;;;;;;;;;4894006;29;20047;-84
2021/11/17 14:33:58;;;;;;;15.93;4.90;;;;;;;;;;4892654;29;20076;-85
2021/11/17 14:36:31;;;;;;;17.85;4.78;;;;;;;;;;4872319;29;20668;-84
2021/11/17 14:39:03;;;;;;;18.35;4.60;;;;;;;;;;4893333;29;20059;-83
2021/11/17 14:41:30;;;;;;;20.92;5.60;;;;;;;;;;4879534;29;20040;-83
2021/11/17 14:44:03;;;;;;;20.40;5.85;;;;;;;;;;4885734;29;20040;-84
2021/11/17 14:46:32;;;;;;;22.38;5.50;;;;;;;;;;4882542;29;20128;-85
2021/11/17 14:49:00;;;;;;;16.83;5.28;;;;;;;;;;4872895;29;20452;-86
2021/11/17 14:51:30;;;;;;;20.00;4.35;;;;;;;;;;4881480;28;20893;-85
2021/11/17 14:53:58;;;;;;;18.52;4.50;;;;;;;;;;4883927;29;20044;-87
2021/11/17 14:56:26;;;;;;;16.85;4.53;;;;;;;;;;4879212;29;20039;-88
2021/11/17 14:58:54;;;;;;;20.63;4.20;;;;;;;;;;4886233;29;20039;-88
2021/11/17 15:01:24;;;;;;;21.55;5.10;;;;;;;;;;4878924;29;20043;-85
2021/11/17 15:03:52;;;;;;;17.63;4.82;;;;;;;;;;4876396;29;20032;-87
2021/11/17 15:06:23;;;;;;;20.63;5.05;;;;;;;;;;4896600;29;20047;-86
2021/11/17 15:08:54;;;;;;;23.55;4.80;;;;;;;;;;4890149;29;20049;-86
2021/11/17 15:11:23;;;;;;;17.25;4.70;;;;;;;;;;4880780;29;20044;-85
2021/11/17 15:13:52;;;;;;;24.27;4.88;;;;;;;;;;4876676;29;20067;-86
2021/11/17 15:16:19;;;;;;;20.63;4.30;;;;;;;;;;4884871;29;20125;-86
2021/11/17 15:18:49;;;;;;;20.23;3.97;;;;;;;;;;4885542;29;20040;-86
2021/11/17 15:21:18;;;;;;;20.77;3.78;;;;;;;;;;4880367;29;20036;-86
2021/11/17 15:23:48;;;;;;;20.80;3.63;;;;;;;;;;4885454;29;20039;-81
2021/11/17 15:26:18;;;;;;;14.98;4.00;;;;;;;;;;4873936;29;20028;-81
2021/11/17 15:28:47;;;;;;;18.42;3.70;;;;;;;;;;4894463;29;20044;-81
2021/11/17 15:31:17;;;;;;;17.77;3.88;;;;;;;;;;4863711;29;20047;-79
2021/11/17 15:33:47;;;;;;;16.67;3.85;;;;;;;;;;4883010;29;20492;-80
2021/11/17 15:36:16;;;;;;;23.23;4.70;;;;;;;;;;4892885;29;20534;-80
2021/11/17 15:38:46;;;;;;;16.90;4.60;;;;;;;;;;4883026;29;20162;-82
2021/11/17 15:41:15;;;;;;;19.13;4.15;;;;;;;;;;4878286;29;20066;-82
2021/11/17 15:43:46;;;;;;;19.73;4.75;;;;;;;;;;4880141;29;20037;-82
2021/11/17 15:46:15;;;;;;;20.80;4.30;;;;;;;;;;4876884;29;20032;-80
2021/11/17 15:48:46;;;;;;;19.00;3.80;;;;;;;;;;4885286;29;20144;-81
2021/11/17 15:51:20;;;;;;;18.02;5.32;;;;;;;;;;4879085;29;20153;-81
2021/11/17 15:53:56;;;;;;;17.80;3.95;;;;;;;;;;4835453;29;20049;-89
2021/11/17 15:56:38;;;;;;;14.73;3.75;;;;;;;;;;4842175;29;20425;-89
2021/11/17 15:59:20;;;;;;;15.18;4.35;;;;;;;;;;4814424;29;20506;-81
2021/11/17 16:01:53;;;;;;;17.23;4.80;;;;;;;;;;4832130;29;20030;-81
2021/11/17 16:04:21;;;;;;;18.23;4.47;;;;;;;;;;4786094;29;20655;-81
2021/11/17 16:07:15;;;;;;;20.42;7.28;;;;;;;;;;4825198;29;20046;-81
2021/11/17 16:09:49;;;;;;;24.35;6.78;;;;;;;;;;4813747;29;20125;-81
2021/11/17 16:12:18;;;;;;;20.63;6.40;;;;;;;;;;4834933;29;20037;-89
2021/11/17 16:14:49;;;;;;;21.02;5.72;;;;;;;;;;4829472;29;20046;-81
2021/11/17 16:17:20;;;;;;;23.27;11.60;;;;;;;;;;4825264;29;20076;-82
2021/11/17 16:19:51;;;;;;;22.83;12.38;;;;;;;;;;4806721;29;20054;-83
2021/11/17 16:22:23;;;;;;;27.90;10.30;;;;;;;;;;4825802;29;20052;-83
2021/11/17 16:27:39;;;;;;;19.83;5.90;;;;;;;;;;4829426;29;20605;-82
2021/11/17 16:30:12;;;;;;;18.67;5.80;;;;;;;;;;4828778;29;20673;-81
2021/11/17 16:32:45;;;;;;;23.58;7.85;;;;;;;;;;4813195;29;20050;-81
2021/11/17 16:35:17;;;;;;;27.23;9.82;;;;;;;;;;4829610;29;20385;-82
2021/11/17 16:37:45;;;;;;;27.80;11.10;;;;;;;;;;4846238;29;20041;-81
2021/11/17 16:40:14;;;;;;;23.85;8.73;;;;;;;;;;4824570;29;20055;-81
2021/11/17 16:42:42;;;;;;;23.30;10.25;;;;;;;;;;4848124;29;20044;-82
2021/11/17 16:45:11;;;;;;;27.95;11.32;;;;;;;;;;4876818;29;20040;-82
2021/11/17 16:47:40;;;;;;;25.55;12.63;;;;;;;;;;4888532;29;20048;-81
2021/11/17 16:50:10;;;;;;;37.35;13.88;;;;;;;;;;4870082;29;20123;-83
2021/11/17 16:52:44;;;;;;;25.75;10.50;;;;;;;;;;4886557;29;20158;-83
2021/11/17 16:55:13;;;;;;;26.10;10.98;;;;;;;;;;4848696;29;20032;-83
2021/11/17 16:57:42;;;;;;;25.08;10.27;;;;;;;;;;4885949;29;20575;-83
2021/11/17 17:00:11;;;;;;;32.67;10.85;;;;;;;;;;4882683;29;20051;-80
2021/11/17 17:02:39;;;;;;;26.13;13.43;;;;;;;;;;4891809;29;20044;-81
2021/11/17 17:05:07;;;;;;;27.17;11.35;;;;;;;;;;4884350;29;20036;-81
2021/11/17 17:07:37;;;;;;;24.77;9.02;;;;;;;;;;4875289;29;20036;-81
2021/11/17 17:10:09;;;;;;;23.55;6.47;;;;;;;;;;4891939;29;20040;-83
2021/11/17 17:12:40;;;;;;;19.55;7.07;;;;;;;;;;4884136;29;20590;-82
2021/11/17 17:15:09;;;;;;;19.67;6.68;;;;;;;;;;4888540;29;20095;-83
2021/11/17 17:17:37;;;;;;;22.13;7.93;;;;;;;;;;4875539;29;20094;-81
2021/11/17 17:20:09;;;;;;;21.73;7.22;;;;;;;;;;4885118;29;20055;-82
2021/11/17 17:22:41;;;;;;;20.88;5.78;;;;;;;;;;4884164;29;20040;-82
2021/11/17 17:25:12;;;;;;;20.15;6.28;;;;;;;;;;4875870;28;20044;-81
2021/11/17 17:27:40;;;;;;;19.25;6.07;;;;;;;;;;4896594;29;20024;-83
2021/11/17 17:30:11;;;;;;;23.42;7.88;;;;;;;;;;4887269;29;20032;-82
2021/11/17 17:32:39;;;;;;;23.92;7.70;;;;;;;;;;4884782;29;20049;-82
2021/11/17 17:35:13;;;;;;;19.90;6.50;;;;;;;;;;4869227;29;20039;-86
2021/11/17 17:37:40;;;;;;;28.83;8.48;;;;;;;;;;4888097;29;20100;-85
2021/11/17 17:40:10;;;;;;;21.30;6.78;;;;;;;;;;4876756;29;20156;-87
2021/11/17 17:42:39;;;;;;;20.27;6.53;;;;;;;;;;4886908;29;20044;-87
2021/11/17 17:45:10;;;;;;;22.63;7.05;;;;;;;;;;4890041;29;20040;-86
2021/11/17 17:47:39;;;;;;;21.00;6.25;;;;;;;;;;4886601;29;20119;-87
2021/11/17 17:50:11;;;;;;;19.48;6.63;;;;;;;;;;4881064;29;20054;-86
2021/11/17 17:52:42;;;;;;;19.95;7.25;;;;;;;;;;4873714;29;20064;-85
2021/11/17 17:55:12;;;;;;;22.45;7.55;;;;;;;;;;4881876;29;20044;-86
2021/11/17 17:57:40;;;;;;;22.25;6.80;;;;;;;;;;4873320;29;20154;-87
2021/11/17 18:00:11;;;;;;;23.15;7.65;;;;;;;;;;4894991;29;20122;-85
2021/11/17 18:02:39;;;;;;;20.77;7.82;;;;;;;;;;4888090;29;20044;-85
2021/11/17 18:05:08;;;;;;;21.45;8.40;;;;;;;;;;4888666;29;20036;-86
2021/11/17 18:07:37;;;;;;;20.05;7.68;;;;;;;;;;4898121;29;20140;-85
2021/11/17 18:10:04;;;;;;;20.20;7.80;;;;;;;;;;4892558;29;20039;-85
2021/11/17 18:12:33;;;;;;;24.05;8.80;;;;;;;;;;4886144;29;20036;-85